Aérodrome :
LOGIN :

S'inscrire | Disclaimer

   EN    FR    IT 

 










Légende :    VFR   VFR Marginal   IFR   IFR Intensif   IFR Très Intensif
Visi : 
Plafond : 
>= 8 km
>= 3000ft
5 à 8 km
1000 à 3000 ft
1500m à 5 km
500 à 1000 ft
800 à 1500m
200 à 500 ft
< 800m
< 200 ft
Symboles :   Orages  Brouillard  Fortes neiges  Fortes précipitations  Vent > 20 kt
SIGMETs :   Divers  Orages  Givrage  Turbulence  Onde Orograph.  Cendres Volcan.






- Altitude de l'aérodrome : 138 ft
- Code IATA : BIO


LEBB - Bilbao

DERNIER METAR :
  • 201100Z VRB02KT 9999 SCT026 BKN036 BKN050 05/01 Q1036 NOSIG

METARs EXPIRÉS :
  • 201030Z VRB02KT 9999 SCT028 BKN040 05/00 Q1036 NOSIG
  • 201000Z 13004KT 080V190 9999 SCT028 SCT034 BKN045 05/00 Q1036 NOSIG
  • 200930Z 13004KT 080V170 9999 SCT028 SCT034 BKN045 05/00 Q1036 NOSIG
  • 200900Z 13004KT 090V160 9999 SCT028 SCT042 BKN060 05/01 Q1036 NOSIG
  • 200830Z 12007KT 080V170 9999 SCT028 BKN042 05/01 Q1036 NOSIG
  • 200800Z 05006KT 360V100 9999 SCT035 BKN050 06/M01 Q1035 NOSIG

TAF TAF LEBB
Valide du 20 à 06h jusqu'au 21 à 06h UTC


200500Z 2006/2106 04009KT 9999 SCT035 SCT045 TX07/2014Z TN05/2007Z
PROB30
TEMPO 2006/2016 04015G25KT
PROB30
TEMPO 2006/2007 RA



MET'MAP, la Météo Aéronautique d'un coup d'oeil ! - Copyright ORBIFLY Décembre 2007 - Disclaimer

ORBIFLY MET'MAP TEAM :

Programmation & Développement : Alexandra Zaïnal
Sur une idée originale de : Baudouin d'Aumeries
Assistance à la programmation : Marc-Olivier Méhu
Soutien technique & logistique : Manuel Goepfert

Contact : metmap@orbifly.com




SOURCES & CREDITS :

   NOAA